Time;durP1;ratioP1;P1;durP2;ratioP2;P2;SDS_P1;SDS_P2;PMS_P1;PMS_P2;Temp;Humidity;BMP_temperature;BMP_pressure;BME280_temperature;BME280_humidity;BME280_pressure;Samples;Min_cycle;Max_cycle;Signal;HPM_P1;HPM_P2
2022/06/01 00:02:21;;;;;;;6.67;4.77;;;13.50;34.10;;;;;;5095825;28;20702;-79
2022/06/01 00:04:47;;;;;;;6.47;4.70;;;13.40;30.00;;;;;;5095584;28;20184;-82
2022/06/01 00:07:13;;;;;;;7.73;4.23;;;13.30;30.60;;;;;;5097028;28;20166;-79
2022/06/01 00:09:39;;;;;;;4.60;4.10;;;13.50;25.10;;;;;;5097444;28;20166;-84
2022/06/01 00:12:05;;;;;;;7.63;4.13;;;13.40;22.60;;;;;;5078100;28;20296;-82
2022/06/01 00:14:33;;;;;;;6.20;4.20;;;13.30;19.90;;;;;;5096026;28;20167;-84
2022/06/01 00:16:58;;;;;;;4.77;3.60;;;13.30;16.90;;;;;;5095970;28;20160;-79
2022/06/01 00:19:24;;;;;;;5.50;3.57;;;13.20;14.30;;;;;;5095424;28;20168;-80
2022/06/01 00:24:37;;;;;;;4.53;3.33;;;13.00;16.80;;;;;;5095699;28;20230;-78
2022/06/01 00:27:03;;;;;;;5.47;3.30;;;13.00;18.80;;;;;;5096318;28;20205;-86
2022/06/01 00:29:29;;;;;;;4.13;3.17;;;13.00;18.30;;;;;;5096241;28;20230;-86
2022/06/01 00:31:55;;;;;;;4.90;3.20;;;12.90;16.60;;;;;;5079346;28;20181;-83
2022/06/01 00:34:20;;;;;;;6.33;3.70;;;12.90;13.80;;;;;;5095489;28;20188;-78
2022/06/01 00:36:46;;;;;;;6.90;3.73;;;12.90;14.30;;;;;;5100219;28;20168;-83
2022/06/01 00:39:12;;;;;;;9.13;4.30;;;12.90;14.90;;;;;;5102261;28;20185;-78
2022/06/01 00:41:37;;;;;;;6.80;3.63;;;12.80;15.00;;;;;;5096454;28;20516;-80
2022/06/01 00:44:03;;;;;;;5.03;3.27;;;12.70;15.60;;;;;;5095592;28;20161;-83
2022/06/01 00:46:32;;;;;;;4.53;2.80;;;12.60;16.60;;;;;;5095685;28;20620;-78
2022/06/01 00:49:03;;;;;;;4.87;2.40;;;12.50;17.60;;;;;;5095113;28;20174;-85
2022/06/01 00:51:29;;;;;;;5.17;2.97;;;12.40;17.80;;;;;;5094678;28;20164;-83
2022/06/01 00:53:58;;;;;;;6.00;3.07;;;12.40;18.70;;;;;;5095370;28;20675;-78
2022/06/01 00:56:33;;;;;;;5.07;3.20;;;12.20;17.20;;;;;;5095411;28;20247;-83
2022/06/01 00:59:03;;;;;;;6.57;2.60;;;12.20;18.70;;;;;;5094986;28;20179;-80
2022/06/01 01:01:29;;;;;;;4.87;2.70;;;12.20;18.20;;;;;;5096349;28;20276;-78
2022/06/01 01:03:57;;;;;;;4.10;2.83;;;12.10;16.40;;;;;;5100609;28;20549;-80
2022/06/01 01:06:29;;;;;;;4.40;3.00;;;12.10;17.40;;;;;;5102130;28;20187;-77
2022/06/01 01:08:55;;;;;;;4.93;2.77;;;12.20;16.40;;;;;;5077876;28;20183;-79
2022/06/01 01:11:27;;;;;;;5.70;3.20;;;12.20;15.50;;;;;;5098485;28;20156;-79
2022/06/01 01:13:53;;;;;;;3.50;2.63;;;12.40;11.60;;;;;;5104879;28;20191;-77
2022/06/01 01:16:20;;;;;;;5.17;3.00;;;12.40;7.20;;;;;;5109882;28;20160;-81
2022/06/01 01:18:54;;;;;;;6.13;3.47;;;12.40;7.30;;;;;;5106685;28;20163;-83
2022/06/01 01:21:59;;;;;;;5.43;2.90;;;12.20;11.30;;;;;;5100570;28;20199;-78
2022/06/01 01:24:49;;;;;;;6.00;3.37;;;12.00;16.40;;;;;;5095850;28;20167;-79
2022/06/01 01:27:15;;;;;;;5.07;3.00;;;12.10;15.50;;;;;;5094608;28;20172;-79
2022/06/01 01:29:54;;;;;;;3.63;2.60;;;12.00;16.40;;;;;;5093887;28;20193;-84
2022/06/01 01:32:20;;;;;;;3.40;2.80;;;12.00;17.10;;;;;;5094320;28;20188;-84
2022/06/01 01:34:46;;;;;;;4.80;2.97;;;12.00;15.20;;;;;;5093928;28;20186;-81
2022/06/01 01:37:17;;;;;;;7.57;3.20;;;12.10;15.30;;;;;;5094226;28;20171;-80
2022/06/01 01:39:44;;;;;;;5.57;2.70;;;12.20;13.70;;;;;;5094188;28;20207;-84
2022/06/01 01:42:10;;;;;;;5.30;2.93;;;12.20;13.60;;;;;;5093909;28;20216;-84
2022/06/01 01:44:45;;;;;;;5.73;3.70;;;12.10;16.50;;;;;;5093862;28;20242;-81
2022/06/01 01:47:12;;;;;;;6.80;4.37;;;12.00;17.90;;;;;;5075601;28;20175;-79
2022/06/01 01:49:40;;;;;;;6.60;5.00;;;11.90;20.10;;;;;;5093756;28;20156;-79
2022/06/01 01:52:12;;;;;;;6.27;4.83;;;11.90;20.20;;;;;;5075595;28;20183;-80
2022/06/01 01:55:13;;;;;;;5.97;4.53;;;12.00;18.80;;;;;;5093926;28;20174;-83
2022/06/01 01:57:52;;;;;;;5.37;3.77;;;12.00;17.50;;;;;;5092909;28;20187;-81
2022/06/01 02:00:24;;;;;;;6.00;4.00;;;12.00;16.40;;;;;;5093861;28;20186;-79
2022/06/01 02:02:56;;;;;;;10.33;4.40;;;12.00;17.00;;;;;;5093900;28;20179;-84
2022/06/01 02:08:28;;;;;;;5.93;3.63;;;11.90;20.90;;;;;;5093930;28;20175;-84
2022/06/01 02:13:55;;;;;;;5.37;2.77;;;11.70;23.10;;;;;;5094064;28;20202;-82
2022/06/01 02:16:24;;;;;;;5.10;3.10;;;11.60;23.60;;;;;;5093838;28;20164;-84
2022/06/01 02:18:53;;;;;;;6.20;2.73;;;11.60;25.20;;;;;;5093284;28;20172;-80
2022/06/01 02:21:25;;;;;;;8.87;6.90;;;11.60;25.50;;;;;;5093527;28;20156;-84
2022/06/01 02:23:53;;;;;;;17.63;16.13;;;11.70;21.70;;;;;;5076012;28;20266;-85
2022/06/01 02:26:20;;;;;;;20.77;18.80;;;11.60;22.40;;;;;;5093463;28;20742;-78
2022/06/01 02:28:49;;;;;;;18.77;17.27;;;11.60;23.50;;;;;;5093478;28;20222;-78
2022/06/01 02:31:17;;;;;;;14.50;13.00;;;11.50;25.00;;;;;;5093558;28;20176;-78
2022/06/01 02:33:46;;;;;;;14.03;10.00;;;11.40;27.60;;;;;;5092838;28;20203;-79
2022/06/01 02:36:15;;;;;;;8.23;6.97;;;11.40;29.40;;;;;;5093783;28;20758;-84
2022/06/01 02:38:47;;;;;;;10.47;5.57;;;11.50;25.40;;;;;;5093236;28;20182;-82
2022/06/01 02:43:59;;;;;;;5.47;4.03;;;11.50;24.90;;;;;;5093789;28;20219;-78
2022/06/01 02:46:25;;;;;;;7.67;3.60;;;11.40;27.00;;;;;;5094296;28;20616;-79
2022/06/01 02:48:51;;;;;;;6.73;3.13;;;11.40;28.70;;;;;;5075961;28;20179;-81
2022/06/01 02:51:18;;;;;;;5.77;3.10;;;11.30;30.60;;;;;;5077908;28;20174;-82
2022/06/01 02:53:45;;;;;;;6.20;3.00;;;11.30;31.60;;;;;;5110775;28;20247;-81
2022/06/01 02:56:12;;;;;;;5.53;3.10;;;11.20;32.30;;;;;;5116571;28;20156;-80
2022/06/01 02:58:38;;;;;;;6.37;3.60;;;11.20;34.60;;;;;;5112847;28;20175;-80
2022/06/01 03:01:08;;;;;;;6.17;3.10;;;11.20;34.60;;;;;;5102870;28;20508;-83
2022/06/01 03:03:40;;;;;;;6.27;3.40;;;11.20;37.20;;;;;;5097358;28;20194;-79
2022/06/01 03:06:05;;;;;;;6.57;2.90;;;11.30;34.80;;;;;;5097010;28;20175;-83
2022/06/01 03:08:32;;;;;;;5.47;3.23;;;11.30;34.20;;;;;;5097391;28;20520;-78
2022/06/01 03:10:58;;;;;;;4.70;2.70;;;11.30;35.40;;;;;;5097281;28;20631;-78
2022/06/01 03:13:24;;;;;;;9.40;3.10;;;11.30;34.60;;;;;;5119478;28;20229;-77
2022/06/01 03:15:51;;;;;;;6.93;3.07;;;11.40;33.00;;;;;;5118740;28;20172;-81
2022/06/01 03:18:17;;;;;;;5.30;3.10;;;11.30;34.60;;;;;;5113172;28;20152;-81
2022/06/01 03:20:45;;;;;;;6.63;3.30;;;11.40;33.20;;;;;;5079807;28;20155;-79
2022/06/01 03:23:11;;;;;;;4.93;3.03;;;11.40;35.40;;;;;;5097593;28;20266;-79
2022/06/01 03:25:37;;;;;;;5.70;3.03;;;11.40;35.00;;;;;;5083006;28;20647;-79
2022/06/01 03:28:05;;;;;;;5.80;3.40;;;11.30;36.20;;;;;;5101535;28;20218;-81
2022/06/01 03:30:32;;;;;;;5.53;2.97;;;11.20;41.40;;;;;;5098960;28;20694;-77
2022/06/01 03:32:59;;;;;;;5.10;3.00;;;11.10;45.60;;;;;;5097234;28;20222;-79
2022/06/01 03:35:28;;;;;;;5.27;3.17;;;11.10;47.30;;;;;;5080132;28;20650;-79
2022/06/01 03:37:54;;;;;;;7.07;3.00;;;11.20;47.30;;;;;;5105499;28;20168;-79
2022/06/01 03:40:21;;;;;;;8.57;3.50;;;11.20;46.10;;;;;;5109744;28;20174;-79
2022/06/01 03:42:47;;;;;;;7.60;3.60;;;11.30;45.80;;;;;;5109776;28;20176;-78
2022/06/01 03:47:58;;;;;;;5.77;3.20;;;11.40;42.40;;;;;;5116942;28;20185;-82
2022/06/01 03:50:27;;;;;;;6.03;3.57;;;11.40;42.70;;;;;;5091676;28;20175;-77
2022/06/01 03:52:53;;;;;;;6.60;3.30;;;11.30;45.30;;;;;;5110826;28;20202;-78
2022/06/01 03:55:19;;;;;;;5.13;3.20;;;11.30;47.40;;;;;;5108281;28;20182;-77
2022/06/01 03:57:45;;;;;;;6.63;3.70;;;11.50;46.50;;;;;;5104740;28;20229;-78
2022/06/01 04:00:15;;;;;;;6.30;3.40;;;11.70;40.30;;;;;;5104540;28;20168;-82
2022/06/01 04:02:41;;;;;;;7.80;3.83;;;11.60;37.80;;;;;;5103830;28;20215;-83
2022/06/01 04:05:14;;;;;;;7.20;3.63;;;11.60;42.50;;;;;;5100190;28;20505;-78
2022/06/01 04:07:41;;;;;;;6.33;3.70;;;11.60;42.30;;;;;;5097594;28;20160;-78
2022/06/01 04:10:08;;;;;;;6.13;3.90;;;11.60;43.80;;;;;;5097038;28;20163;-78
2022/06/01 04:12:35;;;;;;;6.03;3.80;;;11.50;45.90;;;;;;5099010;28;20214;-84
2022/06/01 04:15:05;;;;;;;8.30;4.20;;;11.50;48.80;;;;;;5098665;28;20172;-84
2022/06/01 04:17:37;;;;;;;5.40;3.33;;;11.70;46.40;;;;;;5097957;28;20163;-83
2022/06/01 04:20:04;;;;;;;6.83;3.70;;;11.70;44.10;;;;;;5101250;28;20171;-84
2022/06/01 04:22:30;;;;;;;6.57;3.90;;;11.70;44.50;;;;;;5099089;28;20163;-83
2022/06/01 04:24:57;;;;;;;6.83;3.90;;;11.60;46.70;;;;;;5096650;28;20701;-79
2022/06/01 04:27:23;;;;;;;9.67;4.50;;;11.60;50.10;;;;;;5077635;28;20732;-79
2022/06/01 04:29:48;;;;;;;8.17;4.17;;;11.60;52.00;;;;;;5077872;28;20223;-84
2022/06/01 04:32:21;;;;;;;5.60;4.23;;;11.50;53.80;;;;;;5077770;28;20698;-84
2022/06/01 04:34:47;;;;;;;11.53;4.50;;;11.40;55.10;;;;;;5095480;28;20167;-79
2022/06/01 04:37:13;;;;;;;9.23;4.47;;;11.40;58.50;;;;;;5095097;28;20179;-81
2022/06/01 04:39:38;;;;;;;5.83;4.20;;;11.40;60.50;;;;;;5095368;28;20160;-82
2022/06/01 04:42:06;;;;;;;11.17;4.33;;;11.50;62.80;;;;;;5095504;28;20511;-80
2022/06/01 04:44:31;;;;;;;8.40;4.33;;;11.50;61.00;;;;;;5094987;28;20172;-79
2022/06/01 04:46:57;;;;;;;8.90;4.17;;;11.60;58.70;;;;;;5096093;28;20533;-80
2022/06/01 04:49:23;;;;;;;10.63;4.67;;;11.70;57.70;;;;;;5095367;28;20210;-77
2022/06/01 04:51:48;;;;;;;13.03;4.97;;;11.70;58.40;;;;;;5094672;28;20537;-78
2022/06/01 04:54:14;;;;;;;7.40;4.30;;;11.60;59.40;;;;;;5094612;28;20594;-79
2022/06/01 04:56:40;;;;;;;13.37;4.70;;;11.70;59.90;;;;;;5095885;28;20178;-82
2022/06/01 04:59:05;;;;;;;8.57;4.57;;;11.80;60.00;;;;;;5100275;28;20168;-79
2022/06/01 05:01:31;;;;;;;15.37;5.10;;;11.90;58.50;;;;;;5110280;28;20175;-78
2022/06/01 05:03:57;;;;;;;11.00;4.60;;;12.00;56.20;;;;;;5111524;28;20172;-77
2022/06/01 05:06:22;;;;;;;9.00;5.37;;;12.10;55.10;;;;;;5105029;28;20191;-77
2022/06/01 05:08:48;;;;;;;8.80;4.50;;;12.10;54.90;;;;;;5099836;28;20182;-80
2022/06/01 05:11:17;;;;;;;11.13;4.47;;;12.20;51.70;;;;;;5078551;28;20195;-78
2022/06/01 05:13:46;;;;;;;10.17;4.63;;;12.30;51.30;;;;;;5078811;28;20561;-81
2022/06/01 05:16:13;;;;;;;10.63;4.70;;;12.40;48.00;;;;;;5097131;28;20624;-83
2022/06/01 05:18:39;;;;;;;7.40;3.97;;;12.60;45.80;;;;;;5090290;28;20184;-83
2022/06/01 05:21:05;;;;;;;9.67;4.70;;;12.60;42.70;;;;;;5091360;28;20175;-81
2022/06/01 05:23:30;;;;;;;10.93;4.60;;;12.60;42.40;;;;;;5104051;28;20178;-80
2022/06/01 05:25:56;;;;;;;6.10;4.20;;;12.60;43.20;;;;;;5085481;28;20171;-80
2022/06/01 05:28:25;;;;;;;8.00;4.70;;;12.60;45.70;;;;;;5109702;28;20199;-80
2022/06/01 05:30:57;;;;;;;8.50;4.13;;;12.60;40.30;;;;;;5113652;28;20227;-82
2022/06/01 05:33:23;;;;;;;9.03;4.80;;;12.60;43.60;;;;;;5083760;28;20577;-78
2022/06/01 05:35:55;;;;;;;9.53;4.67;;;12.60;41.60;;;;;;5099187;28;20213;-82
2022/06/01 05:38:25;;;;;;;9.73;4.60;;;12.60;43.40;;;;;;5080257;28;20195;-80
2022/06/01 05:40:51;;;;;;;8.33;4.70;;;12.50;49.30;;;;;;5099849;28;20179;-81
2022/06/01 05:43:19;;;;;;;9.43;5.90;;;12.40;48.80;;;;;;5102486;28;20194;-79
2022/06/01 05:45:45;;;;;;;9.63;5.07;;;12.50;48.90;;;;;;5105222;28;20175;-79
2022/06/01 05:48:13;;;;;;;7.93;5.10;;;12.60;48.60;;;;;;5105930;28;20171;-84
2022/06/01 05:50:39;;;;;;;11.73;4.60;;;12.70;47.80;;;;;;5104467;28;20163;-82
2022/06/01 05:53:05;;;;;;;9.43;4.30;;;12.70;46.10;;;;;;5082805;28;20208;-80
2022/06/01 05:55:31;;;;;;;13.97;5.07;;;12.70;49.00;;;;;;5099195;28;20159;-81
2022/06/01 05:57:58;;;;;;;7.23;4.27;;;12.60;52.00;;;;;;5091112;28;20647;-84
2022/06/01 06:00:25;;;;;;;8.70;4.67;;;12.60;56.00;;;;;;5097715;28;20677;-82
2022/06/01 06:02:51;;;;;;;9.73;4.80;;;12.80;54.70;;;;;;5099804;28;20666;-84
2022/06/01 06:08:05;;;;;;;10.00;5.33;;;13.00;43.10;;;;;;5094456;28;20262;-80
2022/06/01 06:10:32;;;;;;;9.53;5.20;;;12.90;44.60;;;;;;5077257;28;20180;-85
2022/06/01 06:13:27;;;;;;;9.53;5.03;;;12.90;46.50;;;;;;5075147;28;20199;-84
2022/06/01 06:15:52;;;;;;;10.90;5.00;;;12.80;48.80;;;;;;5075128;28;20226;-83
2022/06/01 06:18:18;;;;;;;11.40;4.63;;;12.70;53.60;;;;;;5061310;28;20485;-81
2022/06/01 06:20:47;;;;;;;9.70;5.33;;;13.00;50.60;;;;;;5073937;28;20186;-82
2022/06/01 06:23:14;;;;;;;8.87;4.77;;;13.10;48.20;;;;;;5074097;28;20160;-82
2022/06/01 06:25:41;;;;;;;11.40;5.53;;;13.20;44.70;;;;;;5055067;28;20597;-82
2022/06/01 06:28:07;;;;;;;9.63;5.50;;;13.20;43.40;;;;;;5073315;28;20180;-84
2022/06/01 06:30:33;;;;;;;9.50;5.50;;;13.20;45.50;;;;;;5072410;28;20191;-85
2022/06/01 06:33:06;;;;;;;9.70;5.57;;;13.30;43.60;;;;;;5086269;28;20213;-86
2022/06/01 06:35:32;;;;;;;9.90;5.17;;;13.40;41.10;;;;;;5091684;28;20174;-80
2022/06/01 06:37:58;;;;;;;12.23;5.77;;;13.50;40.10;;;;;;5095584;28;20537;-81
2022/06/01 06:40:24;;;;;;;8.40;4.77;;;13.40;40.70;;;;;;5089521;28;20660;-86
2022/06/01 06:42:51;;;;;;;7.27;5.17;;;13.30;46.30;;;;;;5080830;28;20231;-80
2022/06/01 06:45:17;;;;;;;9.87;5.00;;;13.30;49.00;;;;;;5064803;28;20586;-85
2022/06/01 06:47:43;;;;;;;15.40;5.33;;;13.50;47.50;;;;;;5090512;28;20649;-84
2022/06/01 06:50:11;;;;;;;9.57;4.80;;;13.60;45.70;;;;;;5095922;28;20176;-86
2022/06/01 06:52:38;;;;;;;10.63;5.40;;;13.70;41.00;;;;;;5092520;28;20200;-79
2022/06/01 06:55:04;;;;;;;7.77;4.83;;;13.90;40.10;;;;;;5079283;28;20204;-82
2022/06/01 06:57:30;;;;;;;9.50;5.00;;;14.00;34.00;;;;;;5089308;28;20217;-80
2022/06/01 06:59:56;;;;;;;9.77;6.10;;;13.90;34.80;;;;;;5088974;28;20189;-83
2022/06/01 07:02:21;;;;;;;10.07;5.83;;;14.00;31.80;;;;;;5077815;28;20196;-81
2022/06/01 07:04:47;;;;;;;12.57;5.93;;;14.20;27.60;;;;;;5076870;28;20251;-86
2022/06/01 07:07:14;;;;;;;7.70;5.90;;;14.20;28.00;;;;;;5059313;28;20198;-84
2022/06/01 07:09:42;;;;;;;10.27;5.40;;;14.20;26.70;;;;;;5066477;28;20617;-83
2022/06/01 07:12:09;;;;;;;9.77;5.77;;;14.30;26.70;;;;;;5063637;28;20177;-85
2022/06/01 07:14:36;;;;;;;8.63;5.43;;;14.50;24.30;;;;;;5094169;28;20180;-84
2022/06/01 07:17:04;;;;;;;8.83;5.70;;;14.60;24.00;;;;;;5091760;28;20189;-88
2022/06/01 07:19:30;;;;;;;9.77;5.30;;;14.60;20.20;;;;;;5098408;28;20204;-83
2022/06/01 07:21:55;;;;;;;8.53;5.20;;;14.60;22.90;;;;;;5107288;28;20181;-82
2022/06/01 07:24:22;;;;;;;9.87;5.47;;;14.70;23.00;;;;;;5132740;28;20174;-83
2022/06/01 07:26:49;;;;;;;8.97;5.60;;;14.70;22.00;;;;;;5133799;28;20162;-81
2022/06/01 07:29:16;;;;;;;8.67;5.70;;;14.80;23.30;;;;;;5123404;28;20191;-84
2022/06/01 07:31:42;;;;;;;11.30;5.80;;;15.00;21.10;;;;;;5119261;28;20504;-85
2022/06/01 07:34:08;;;;;;;12.73;5.83;;;15.10;17.90;;;;;;5096835;28;20208;-83
2022/06/01 07:36:35;;;;;;;8.93;5.13;;;15.40;9.60;;;;;;5077748;28;20173;-83
2022/06/01 07:44:39;;;;;;;7.60;5.20;;;15.90;1.00;;;;;;5077231;28;20203;-85
2022/06/01 07:47:06;;;;;;;6.33;4.20;;;16.00;1.00;;;;;;5077140;28;20176;-84
2022/06/01 07:49:33;;;;;;;7.53;4.47;;;16.10;1.00;;;;;;5076971;28;20168;-87
2022/06/01 07:52:00;;;;;;;6.57;3.90;;;16.10;1.00;;;;;;5073395;28;20270;-81
2022/06/01 07:54:25;;;;;;;5.50;3.90;;;16.00;1.00;;;;;;5064499;28;20215;-82
2022/06/01 07:56:52;;;;;;;6.60;4.00;;;15.90;1.00;;;;;;5100133;28;20172;-86
2022/06/01 07:59:18;;;;;;;8.13;4.43;;;15.80;1.00;;;;;;5082913;28;20191;-84
2022/06/01 08:01:44;;;;;;;7.33;4.33;;;15.70;1.00;;;;;;5106002;28;20228;-85
2022/06/01 08:04:10;;;;;;;8.97;4.47;;;15.50;1.00;;;;;;5119927;28;20177;-83
2022/06/01 08:06:38;;;;;;;7.73;4.40;;;15.70;1.00;;;;;;5093530;28;20177;-82
2022/06/01 08:09:07;;;;;;;6.50;4.37;;;15.60;1.00;;;;;;5104307;28;20186;-84
2022/06/01 08:14:19;;;;;;;7.53;4.53;;;15.60;1.00;;;;;;5080768;28;20229;-83
2022/06/01 08:16:45;;;;;;;6.30;4.37;;;15.70;1.00;;;;;;5083228;28;20571;-82
2022/06/01 08:19:12;;;;;;;6.43;4.00;;;15.90;1.00;;;;;;5077969;28;20536;-82
2022/06/01 08:40:58;;;;;;;10.97;6.87;;;16.00;1.00;;;;;;4928412;23;20286;-87
2022/06/01 08:43:28;;;;;;;5.73;3.50;;;16.00;1.00;;;;;;4984694;28;20271;-88
2022/06/01 08:46:00;;;;;;;7.13;4.27;;;16.10;1.00;;;;;;4978166;28;20179;-87
2022/06/01 08:48:33;;;;;;;7.07;4.23;;;16.20;1.00;;;;;;4970258;28;20179;-86
2022/06/01 08:50:59;;;;;;;5.57;3.67;;;16.60;1.00;;;;;;4960155;29;20191;-86
2022/06/01 08:53:24;;;;;;;7.70;3.73;;;16.70;1.00;;;;;;4963368;29;20232;-89
2022/06/01 08:56:10;;;;;;;6.33;3.27;;;16.70;1.00;;;;;;4963631;28;20188;-90
2022/06/01 08:59:09;;;;;;;5.77;3.70;;;16.60;1.00;;;;;;4976077;28;20176;-87
2022/06/01 09:01:49;;;;;;;6.30;4.50;;;16.60;1.00;;;;;;4997511;28;20658;-83
2022/06/01 09:05:09;;;;;;;5.27;3.20;;;16.80;1.00;;;;;;4998868;28;20175;-91
2022/06/01 09:11:06;;;;;;;5.70;3.77;;;16.90;1.00;;;;;;4997896;28;20187;-88
2022/06/01 09:13:57;;;;;;;8.13;3.87;;;16.90;1.00;;;;;;4986311;28;20262;-91
2022/06/01 09:16:35;;;;;;;4.53;3.50;;;16.80;1.00;;;;;;4983010;28;20171;-89
2022/06/01 09:19:02;;;;;;;7.07;4.33;;;16.90;1.00;;;;;;4994924;28;20215;-89
2022/06/01 09:24:40;;;;;;;5.50;3.77;;;16.50;1.00;;;;;;4993018;28;20163;-94
2022/06/01 09:27:10;;;;;;;11.27;9.13;;;16.70;1.00;;;;;;4972004;28;20270;-88
2022/06/01 09:29:51;;;;;;;15.93;11.93;;;16.60;1.00;;;;;;4981509;28;20194;-90
2022/06/01 09:32:37;;;;;;;5.87;3.47;;;16.70;1.00;;;;;;4986152;28;20225;-89
2022/06/01 09:35:08;;;;;;;9.10;5.00;;;16.60;1.00;;;;;;4984076;28;20182;-91
2022/06/01 09:37:42;;;;;;;16.83;9.20;;;16.60;1.00;;;;;;4989998;28;20156;-89
2022/06/01 09:40:36;;;;;;;9.73;5.07;;;16.70;1.00;;;;;;4987627;28;20171;-89
2022/06/01 09:43:03;;;;;;;4.63;4.10;;;17.20;1.00;;;;;;4968096;29;20180;-89
2022/06/01 09:45:48;;;;;;;7.10;4.30;;;17.30;1.00;;;;;;4966323;29;20264;-90
2022/06/01 09:48:29;;;;;;;6.23;3.90;;;17.10;1.00;;;;;;4958621;29;20176;-89
2022/06/01 09:51:15;;;;;;;5.40;3.63;;;17.20;1.00;;;;;;4971502;29;20775;-89
2022/06/01 09:53:45;;;;;;;6.77;3.70;;;17.40;1.00;;;;;;4967787;29;20220;-90
2022/06/01 09:56:40;;;;;;;5.80;3.27;;;17.60;99.90;;;;;;4967316;29;20699;-89
2022/06/01 10:08:15;;;;;;;4.80;2.90;;;17.40;1.00;;;;;;4974255;29;20219;-90
2022/06/01 10:11:02;;;;;;;4.70;2.97;;;17.50;1.00;;;;;;4971436;29;20258;-89
2022/06/01 10:13:34;;;;;;;4.33;3.10;;;17.60;1.00;;;;;;4967887;29;20275;-91
2022/06/01 10:16:39;;;;;;;5.07;3.30;;;17.90;1.00;;;;;;4966816;29;20188;-93
2022/06/01 10:19:11;;;;;;;7.03;3.37;;;17.80;1.00;;;;;;4969735;29;20211;-90
2022/06/01 10:21:58;;;;;;;6.47;2.80;;;17.70;1.00;;;;;;4970517;28;20188;-92
2022/06/01 10:24:34;;;;;;;5.03;3.27;;;17.80;99.90;;;;;;4972702;28;20180;-89
2022/06/01 10:27:03;;;;;;;6.10;3.60;;;17.70;99.90;;;;;;4970869;28;20188;-90
2022/06/01 10:29:58;;;;;;;4.37;3.00;;;17.70;99.90;;;;;;4952501;29;20184;-92
2022/06/01 10:32:36;;;;;;;6.13;2.93;;;17.50;1.00;;;;;;4999952;28;20184;-90
2022/06/01 10:35:25;;;;;;;5.30;3.30;;;17.20;99.90;;;;;;4968177;29;20188;-92
2022/06/01 10:38:01;;;;;;;5.30;3.30;;;17.00;99.90;;;;;;4970433;29;20220;-93
2022/06/01 10:40:43;;;;;;;5.20;3.57;;;16.90;1.00;;;;;;4966874;28;20184;-91
2022/06/01 10:43:19;;;;;;;4.93;3.27;;;17.00;1.00;;;;;;4996716;28;20236;-89
2022/06/01 10:45:49;;;;;;;6.60;4.23;;;17.10;1.00;;;;;;4963596;29;20172;-90
2022/06/01 10:48:36;;;;;;;6.80;4.20;;;17.10;1.00;;;;;;4961948;29;20257;-90
2022/06/01 10:51:08;;;;;;;8.17;4.37;;;17.10;1.00;;;;;;4963776;29;20208;-89
2022/06/01 10:54:00;;;;;;;7.70;3.97;;;17.20;1.00;;;;;;4972306;29;20271;-90
2022/06/01 10:56:30;;;;;;;4.83;3.87;;;17.50;1.00;;;;;;4967151;29;20172;-91
2022/06/01 10:59:16;;;;;;;6.60;3.43;;;17.40;1.00;;;;;;4950329;29;20184;-93
2022/06/01 11:02:42;;;;;;;4.60;2.90;;;17.40;99.90;;;;;;4956089;29;20191;-89
2022/06/01 11:06:20;;;;;;;3.63;2.57;;;17.60;99.90;;;;;;4977813;28;20200;-88
2022/06/01 11:08:52;;;;;;;6.30;3.00;;;17.40;1.00;;;;;;4911328;29;20193;-88
2022/06/01 11:11:46;;;;;;;6.20;2.93;;;17.30;1.00;;;;;;4968544;28;20282;-92
2022/06/01 11:14:31;;;;;;;4.57;2.17;;;17.30;1.00;;;;;;4954004;29;20241;-90
2022/06/01 11:17:01;;;;;;;6.97;2.93;;;17.20;1.00;;;;;;4952055;29;20169;-90
2022/06/01 11:19:58;;;;;;;8.20;3.70;;;17.30;1.00;;;;;;4931598;29;20177;-88
2022/06/01 11:22:58;;;;;;;4.23;2.60;;;17.60;99.90;;;;;;4961455;29;20518;-86
2022/06/01 11:25:44;;;;;;;5.57;2.40;;;17.70;1.00;;;;;;4974124;28;20188;-89
2022/06/01 11:28:48;;;;;;;3.47;2.40;;;17.80;99.90;;;;;;4942945;29;20173;-89
2022/06/01 11:31:21;;;;;;;5.10;2.67;;;17.80;1.00;;;;;;4931857;29;20181;-91
2022/06/01 11:34:11;;;;;;;6.30;3.40;;;17.90;1.00;;;;;;4950650;29;20324;-89
2022/06/01 11:37:00;;;;;;;6.63;2.87;;;18.10;99.90;;;;;;4948063;29;20183;-90
2022/06/01 11:39:38;;;;;;;5.20;2.83;;;18.20;1.00;;;;;;4946218;29;20184;-90
2022/06/01 11:42:29;;;;;;;2.90;2.40;;;18.20;99.90;;;;;;4943639;29;20216;-88
2022/06/01 11:45:04;;;;;;;2.30;1.93;;;18.40;99.90;;;;;;4941521;29;20179;-88
2022/06/01 11:47:40;;;;;;;4.03;2.67;;;18.50;1.00;;;;;;4957864;29;20180;-90
2022/06/01 11:50:36;;;;;;;4.87;2.57;;;18.70;1.00;;;;;;4946511;29;20236;-89
2022/06/01 11:53:18;;;;;;;5.57;3.20;;;18.70;1.00;;;;;;4963819;29;20224;-87
2022/06/01 11:55:50;;;;;;;4.97;3.47;;;18.40;40.30;;;;;;4959309;29;20165;-88
2022/06/01 11:58:36;;;;;;;7.00;3.50;;;18.50;99.90;;;;;;4934733;29;20229;-88
2022/06/01 12:01:36;;;;;;;4.07;3.57;;;18.60;1.00;;;;;;4972341;29;20184;-89
2022/06/01 12:04:47;;;;;;;4.70;3.10;;;18.30;1.00;;;;;;4967805;28;20169;-95
2022/06/01 12:07:46;;;;;;;7.30;4.37;;;17.90;99.90;;;;;;4967653;29;20169;-88
2022/06/01 12:10:33;;;;;;;6.30;3.60;;;17.60;99.90;;;;;;4899951;29;20196;-89
2022/06/01 12:13:03;;;;;;;6.27;3.33;;;17.30;99.90;;;;;;4947150;29;20677;-88
2022/06/01 12:16:03;;;;;;;5.77;4.07;;;17.10;99.90;;;;;;4953963;28;20157;-86
2022/06/01 12:18:56;;;;;;;5.77;4.13;;;17.20;99.90;;;;;;4978491;28;20168;-92
2022/06/01 12:21:37;;;;;;;8.50;3.93;;;17.40;99.90;;;;;;4966998;28;20169;-88
2022/06/01 12:30:22;;;;;;;5.43;3.90;;;17.40;99.90;;;;;;4979380;28;20197;-87
2022/06/01 12:33:03;;;;;;;4.23;3.80;;;17.60;1.00;;;;;;4962723;28;20199;-88
2022/06/01 12:35:47;;;;;;;6.97;4.33;;;17.70;99.90;;;;;;4975780;29;20157;-94
2022/06/01 12:39:09;;;;;;;6.10;4.30;;;17.70;99.90;;;;;;4951825;29;20161;-95
2022/06/01 12:41:36;;;;;;;7.33;4.23;;;17.50;19.70;;;;;;4967321;28;20275;-88
2022/06/01 12:44:08;;;;;;;5.00;3.73;;;17.50;99.90;;;;;;4970935;29;20187;-91
2022/06/01 12:46:48;;;;;;;5.93;3.90;;;17.50;1.00;;;;;;4946548;29;20193;-88
2022/06/01 12:49:35;;;;;;;5.70;3.43;;;17.40;99.90;;;;;;4948918;29;20173;-89
2022/06/01 12:52:08;;;;;;;5.57;3.43;;;17.50;1.00;;;;;;4965957;28;20197;-86
2022/06/01 12:54:57;;;;;;;5.33;3.70;;;17.50;99.90;;;;;;4953022;28;20248;-87
2022/06/01 12:57:30;;;;;;;4.33;3.00;;;17.60;99.90;;;;;;4956319;29;20181;-87
2022/06/01 13:00:13;;;;;;;5.23;4.30;;;17.70;99.90;;;;;;4959832;29;20189;-86
2022/06/01 13:02:41;;;;;;;6.90;4.83;;;17.70;99.90;;;;;;4957379;29;20178;-89
2022/06/01 13:05:14;;;;;;;4.33;3.30;;;17.60;99.90;;;;;;4945918;29;20213;-88
2022/06/01 13:07:50;;;;;;;4.43;3.03;;;17.70;99.90;;;;;;4973539;29;20215;-94
2022/06/01 13:10:22;;;;;;;4.80;2.80;;;18.10;1.00;;;;;;4942455;29;20198;-89
2022/06/01 13:13:10;;;;;;;5.40;3.43;;;18.30;99.90;;;;;;4952983;29;20265;-90
2022/06/01 13:15:42;;;;;;;6.77;3.43;;;18.60;99.90;;;;;;4967142;28;20327;-94
2022/06/01 13:18:21;;;;;;;3.87;2.80;;;18.60;1.00;;;;;;4967764;28;20248;-92
2022/06/01 13:21:10;;;;;;;3.93;2.93;;;18.40;99.90;;;;;;4940674;29;20188;-88
2022/06/01 13:23:50;;;;;;;4.10;2.47;;;18.60;99.90;;;;;;4943234;29;20215;-89
2022/06/01 13:26:35;;;;;;;4.40;3.13;;;18.90;99.90;;;;;;4944682;29;20185;-88
2022/06/01 13:29:17;;;;;;;6.87;3.40;;;19.10;99.90;;;;;;4940864;29;20186;-88
2022/06/01 13:31:48;;;;;;;5.53;2.87;;;18.80;99.90;;;;;;4931870;29;20153;-90
2022/06/01 13:34:21;;;;;;;4.13;2.67;;;18.70;1.00;;;;;;4932227;29;20316;-87
2022/06/01 13:36:51;;;;;;;4.70;3.03;;;18.40;99.90;;;;;;4951271;29;20272;-87
2022/06/01 13:39:31;;;;;;;5.47;3.20;;;18.20;99.90;;;;;;4966823;29;20185;-89
2022/06/01 13:42:03;;;;;;;3.63;3.20;;;18.10;99.90;;;;;;4965753;28;20236;-89
2022/06/01 13:44:50;;;;;;;5.30;3.27;;;18.30;99.90;;;;;;4943916;29;20350;-88
2022/06/01 13:47:31;;;;;;;3.20;2.50;;;18.20;99.90;;;;;;4959747;29;20183;-88
2022/06/01 13:50:24;;;;;;;6.60;3.17;;;18.20;99.90;;;;;;4952938;28;20175;-87
2022/06/01 13:53:29;;;;;;;5.97;3.23;;;18.30;99.90;;;;;;4944193;29;20222;-88
2022/06/01 13:55:56;;;;;;;6.63;3.30;;;18.30;99.90;;;;;;4954670;29;20177;-87
2022/06/01 13:58:34;;;;;;;5.27;3.90;;;18.20;99.90;;;;;;4943970;29;20253;-88
2022/06/01 14:01:07;;;;;;;4.73;3.00;;;18.00;99.90;;;;;;4955285;29;20185;-87
2022/06/01 14:03:42;;;;;;;4.53;3.10;;;17.70;99.90;;;;;;4927102;29;20174;-88
2022/06/01 14:06:11;;;;;;;3.83;2.80;;;17.60;1.00;;;;;;4938376;29;20185;-88
2022/06/01 14:08:51;;;;;;;4.93;3.10;;;17.50;1.00;;;;;;4933581;29;20199;-88
2022/06/01 14:11:27;;;;;;;4.57;2.70;;;17.60;1.00;;;;;;4944786;29;20188;-87
2022/06/01 14:13:53;;;;;;;5.63;2.77;;;17.70;1.00;;;;;;4960256;29;20218;-87
2022/06/01 14:16:24;;;;;;;5.33;2.53;;;17.70;1.00;;;;;;4961904;29;20548;-91
2022/06/01 14:19:15;;;;;;;4.50;2.67;;;17.80;1.00;;;;;;4950887;29;20189;-88
2022/06/01 14:21:42;;;;;;;5.30;2.60;;;17.90;99.90;;;;;;4943934;29;20192;-87
2022/06/01 14:24:08;;;;;;;4.10;2.60;;;18.00;1.00;;;;;;4941293;29;20169;-89
2022/06/01 14:29:21;;;;;;;4.60;2.27;;;18.00;99.90;;;;;;4953836;29;20241;-91